sensor_id;sensor_type;location;lat;lon;timestamp;P1;P2;P0
23240;PMS7003;11789;53.482;9.862;2023-02-01T00:01:19;8.25;2.50;1.00
23240;PMS7003;11789;53.482;9.862;2023-02-01T00:03:45;10.75;4.00;1.00
23240;PMS7003;11789;53.482;9.862;2023-02-01T00:06:10;7.50;3.75;2.00
23240;PMS7003;11789;53.482;9.862;2023-02-01T00:08:35;6.25;3.25;1.00
23240;PMS7003;11789;53.482;9.862;2023-02-01T00:11:03;6.75;3.00;2.00
23240;PMS7003;11789;53.482;9.862;2023-02-01T00:13:31;5.25;4.00;1.00
23240;PMS7003;11789;53.482;9.862;2023-02-01T00:18:30;5.25;3.75;1.00
23240;PMS7003;11789;53.482;9.862;2023-02-01T00:20:56;5.75;3.75;1.25
23240;PMS7003;11789;53.482;9.862;2023-02-01T00:23:22;6.75;4.25;1.00
23240;PMS7003;11789;53.482;9.862;2023-02-01T00:25:47;10.00;2.75;1.00
23240;PMS7003;11789;53.482;9.862;2023-02-01T00:28:13;8.25;3.25;1.00
23240;PMS7003;11789;53.482;9.862;2023-02-01T00:30:38;10.25;3.00;1.25
23240;PMS7003;11789;53.482;9.862;2023-02-01T00:33:04;8.75;3.00;2.00
23240;PMS7003;11789;53.482;9.862;2023-02-01T00:35:29;10.75;3.00;2.00
23240;PMS7003;11789;53.482;9.862;2023-02-01T00:37:55;9.00;3.50;1.50
23240;PMS7003;11789;53.482;9.862;2023-02-01T00:40:23;7.25;3.50;2.00
23240;PMS7003;11789;53.482;9.862;2023-02-01T00:42:49;14.00;4.25;1.25
23240;PMS7003;11789;53.482;9.862;2023-02-01T00:45:14;15.75;8.00;3.00
23240;PMS7003;11789;53.482;9.862;2023-02-01T00:47:40;6.75;2.50;1.50
23240;PMS7003;11789;53.482;9.862;2023-02-01T00:50:05;10.00;4.25;2.00
23240;PMS7003;11789;53.482;9.862;2023-02-01T00:52:31;9.00;4.00;2.25
23240;PMS7003;11789;53.482;9.862;2023-02-01T00:54:56;9.25;4.00;1.25
23240;PMS7003;11789;53.482;9.862;2023-02-01T00:57:22;10.50;4.50;2.00
23240;PMS7003;11789;53.482;9.862;2023-02-01T00:59:47;8.75;5.25;2.00
23240;PMS7003;11789;53.482;9.862;2023-02-01T01:02:13;15.75;6.00;2.00
23240;PMS7003;11789;53.482;9.862;2023-02-01T01:04:39;7.75;4.50;2.50
23240;PMS7003;11789;53.482;9.862;2023-02-01T01:07:05;8.25;5.00;2.00
23240;PMS7003;11789;53.482;9.862;2023-02-01T01:09:31;3.00;3.00;1.00
23240;PMS7003;11789;53.482;9.862;2023-02-01T01:11:56;7.75;7.75;2.75
23240;PMS7003;11789;53.482;9.862;2023-02-01T01:14:22;10.75;4.75;1.25
23240;PMS7003;11789;53.482;9.862;2023-02-01T01:16:47;9.50;4.50;2.00
23240;PMS7003;11789;53.482;9.862;2023-02-01T01:19:15;10.00;3.75;2.00
23240;PMS7003;11789;53.482;9.862;2023-02-01T01:21:40;8.25;3.00;1.75
23240;PMS7003;11789;53.482;9.862;2023-02-01T01:24:06;8.00;5.00;2.00
23240;PMS7003;11789;53.482;9.862;2023-02-01T01:26:31;8.25;3.50;1.75
23240;PMS7003;11789;53.482;9.862;2023-02-01T01:28:57;15.00;5.00;2.00
23240;PMS7003;11789;53.482;9.862;2023-02-01T01:31:24;9.75;6.00;3.00
23240;PMS7003;11789;53.482;9.862;2023-02-01T01:33:50;9.00;5.25;2.00
23240;PMS7003;11789;53.482;9.862;2023-02-01T01:36:17;11.75;3.25;1.00
23240;PMS7003;11789;53.482;9.862;2023-02-01T01:38:43;9.50;4.00;2.00
23240;PMS7003;11789;53.482;9.862;2023-02-01T01:41:11;11.25;6.50;3.00
23240;PMS7003;11789;53.482;9.862;2023-02-01T01:43:53;8.25;4.25;2.00
23240;PMS7003;11789;53.482;9.862;2023-02-01T01:46:27;7.00;4.75;1.00
23240;PMS7003;11789;53.482;9.862;2023-02-01T01:49:16;4.75;3.00;1.25
23240;PMS7003;11789;53.482;9.862;2023-02-01T01:51:55;9.75;6.50;3.00
23240;PMS7003;11789;53.482;9.862;2023-02-01T01:54:31;14.50;7.75;3.00
23240;PMS7003;11789;53.482;9.862;2023-02-01T01:57:12;10.25;3.00;2.00
23240;PMS7003;11789;53.482;9.862;2023-02-01T01:59:42;7.25;3.50;2.00
23240;PMS7003;11789;53.482;9.862;2023-02-01T02:02:12;13.25;8.00;2.00
23240;PMS7003;11789;53.482;9.862;2023-02-01T02:04:37;5.50;4.00;2.00
23240;PMS7003;11789;53.482;9.862;2023-02-01T02:07:05;6.75;4.75;2.00
23240;PMS7003;11789;53.482;9.862;2023-02-01T02:09:42;9.75;4.00;1.50
23240;PMS7003;11789;53.482;9.862;2023-02-01T02:12:08;15.50;7.00;2.00
23240;PMS7003;11789;53.482;9.862;2023-02-01T02:14:34;7.75;7.75;2.00
23240;PMS7003;11789;53.482;9.862;2023-02-01T02:34:27;13.75;6.50;2.00
23240;PMS7003;11789;53.482;9.862;2023-02-01T02:40:14;14.25;5.50;2.50
23240;PMS7003;11789;53.482;9.862;2023-02-01T02:42:52;7.50;3.25;1.25
23240;PMS7003;11789;53.482;9.862;2023-02-01T02:45:44;9.25;4.75;2.00
23240;PMS7003;11789;53.482;9.862;2023-02-01T02:48:37;10.25;5.50;2.00
23240;PMS7003;11789;53.482;9.862;2023-02-01T02:51:11;16.00;5.00;2.00
23240;PMS7003;11789;53.482;9.862;2023-02-01T02:56:43;11.25;5.25;3.00
23240;PMS7003;11789;53.482;9.862;2023-02-01T02:59:27;7.00;4.75;2.00
23240;PMS7003;11789;53.482;9.862;2023-02-01T03:02:14;8.50;7.00;2.00
23240;PMS7003;11789;53.482;9.862;2023-02-01T03:05:01;8.00;6.25;1.75
23240;PMS7003;11789;53.482;9.862;2023-02-01T03:08:10;5.75;3.75;1.50
23240;PMS7003;11789;53.482;9.862;2023-02-01T03:12:40;9.75;3.00;2.00
23240;PMS7003;11789;53.482;9.862;2023-02-01T03:15:21;8.25;3.75;2.00
23240;PMS7003;11789;53.482;9.862;2023-02-01T03:17:51;8.25;4.25;2.00
23240;PMS7003;11789;53.482;9.862;2023-02-01T03:20:20;10.00;3.00;2.00
23240;PMS7003;11789;53.482;9.862;2023-02-01T03:22:49;6.75;3.75;2.00
23240;PMS7003;11789;53.482;9.862;2023-02-01T03:25:21;6.00;3.75;2.00
23240;PMS7003;11789;53.482;9.862;2023-02-01T03:27:54;3.00;2.25;1.00
23240;PMS7003;11789;53.482;9.862;2023-02-01T03:30:26;2.50;2.50;1.50
23240;PMS7003;11789;53.482;9.862;2023-02-01T03:32:55;6.25;2.00;1.00
23240;PMS7003;11789;53.482;9.862;2023-02-01T03:41:11;4.00;2.75;1.00
23240;PMS7003;11789;53.482;9.862;2023-02-01T03:46:19;7.75;2.00;1.00
23240;PMS7003;11789;53.482;9.862;2023-02-01T03:48:50;3.00;2.00;1.00
23240;PMS7003;11789;53.482;9.862;2023-02-01T03:51:17;2.75;1.00;1.00
23240;PMS7003;11789;53.482;9.862;2023-02-01T03:53:45;2.00;2.00;1.00
23240;PMS7003;11789;53.482;9.862;2023-02-01T03:56:14;3.50;2.00;1.00
23240;PMS7003;11789;53.482;9.862;2023-02-01T03:58:43;5.25;1.75;1.00
23240;PMS7003;11789;53.482;9.862;2023-02-01T04:01:23;6.00;0.00;0.00
23240;PMS7003;11789;53.482;9.862;2023-02-01T04:03:48;3.00;1.00;1.00
23240;PMS7003;11789;53.482;9.862;2023-02-01T04:06:14;2.25;2.25;1.00
23240;PMS7003;11789;53.482;9.862;2023-02-01T04:08:40;3.00;1.00;0.75
23240;PMS7003;11789;53.482;9.862;2023-02-01T04:11:05;1.75;1.50;1.00
23240;PMS7003;11789;53.482;9.862;2023-02-01T04:13:31;1.00;1.00;1.00
23240;PMS7003;11789;53.482;9.862;2023-02-01T04:15:56;2.00;2.00;1.00
23240;PMS7003;11789;53.482;9.862;2023-02-01T04:18:22;1.75;1.25;0.00
23240;PMS7003;11789;53.482;9.862;2023-02-01T04:20:47;1.75;1.75;1.00
23240;PMS7003;11789;53.482;9.862;2023-02-01T04:23:12;2.00;1.75;1.00
23240;PMS7003;11789;53.482;9.862;2023-02-01T04:25:38;3.75;1.00;0.25
23240;PMS7003;11789;53.482;9.862;2023-02-01T04:28:04;1.50;1.50;1.00
23240;PMS7003;11789;53.482;9.862;2023-02-01T04:30:30;2.75;2.00;1.00
23240;PMS7003;11789;53.482;9.862;2023-02-01T04:32:55;3.50;2.00;1.00
23240;PMS7003;11789;53.482;9.862;2023-02-01T04:35:20;11.75;2.50;1.25
23240;PMS7003;11789;53.482;9.862;2023-02-01T04:37:46;5.50;2.00;1.00
23240;PMS7003;11789;53.482;9.862;2023-02-01T04:40:12;3.75;1.00;1.00
23240;PMS7003;11789;53.482;9.862;2023-02-01T04:42:37;6.25;1.75;0.25
23240;PMS7003;11789;53.482;9.862;2023-02-01T04:45:03;3.00;1.25;0.50
23240;PMS7003;11789;53.482;9.862;2023-02-01T04:47:29;2.00;0.50;0.25
23240;PMS7003;11789;53.482;9.862;2023-02-01T04:49:54;1.00;1.00;0.00
23240;PMS7003;11789;53.482;9.862;2023-02-01T04:52:20;3.00;1.00;1.00
23240;PMS7003;11789;53.482;9.862;2023-02-01T04:54:45;1.50;1.50;1.00
23240;PMS7003;11789;53.482;9.862;2023-02-01T04:57:11;4.50;2.00;1.50
23240;PMS7003;11789;53.482;9.862;2023-02-01T04:59:38;3.50;2.00;0.75
23240;PMS7003;11789;53.482;9.862;2023-02-01T05:02:04;1.25;1.25;1.00
23240;PMS7003;11789;53.482;9.862;2023-02-01T05:04:29;2.00;2.00;1.75
23240;PMS7003;11789;53.482;9.862;2023-02-01T05:06:55;1.00;1.00;0.75
23240;PMS7003;11789;53.482;9.862;2023-02-01T05:09:20;1.25;0.50;0.00
23240;PMS7003;11789;53.482;9.862;2023-02-01T05:11:46;0.00;0.00;0.00
23240;PMS7003;11789;53.482;9.862;2023-02-01T05:14:31;1.00;0.00;0.00
23240;PMS7003;11789;53.482;9.862;2023-02-01T05:16:56;0.25;0.25;0.00
23240;PMS7003;11789;53.482;9.862;2023-02-01T05:19:22;1.25;0.00;0.00
23240;PMS7003;11789;53.482;9.862;2023-02-01T05:21:47;2.00;0.00;0.00
23240;PMS7003;11789;53.482;9.862;2023-02-01T05:24:12;0.00;0.00;0.00
23240;PMS7003;11789;53.482;9.862;2023-02-01T05:26:39;0.00;0.00;0.00
23240;PMS7003;11789;53.482;9.862;2023-02-01T05:29:05;1.00;0.00;0.00
23240;PMS7003;11789;53.482;9.862;2023-02-01T05:31:32;0.00;0.00;0.00
23240;PMS7003;11789;53.482;9.862;2023-02-01T05:33:58;0.00;0.00;0.00
23240;PMS7003;11789;53.482;9.862;2023-02-01T05:36:23;0.25;0.00;0.00
23240;PMS7003;11789;53.482;9.862;2023-02-01T05:38:49;1.50;0.00;0.00
23240;PMS7003;11789;53.482;9.862;2023-02-01T05:41:14;0.00;0.00;0.00
23240;PMS7003;11789;53.482;9.862;2023-02-01T05:43:40;0.00;0.00;0.00
23240;PMS7003;11789;53.482;9.862;2023-02-01T05:46:05;0.00;0.00;0.00
23240;PMS7003;11789;53.482;9.862;2023-02-01T05:48:31;0.00;0.00;0.00
23240;PMS7003;11789;53.482;9.862;2023-02-01T05:50:56;1.00;0.00;0.00
23240;PMS7003;11789;53.482;9.862;2023-02-01T05:53:22;0.25;0.00;0.00
23240;PMS7003;11789;53.482;9.862;2023-02-01T05:55:47;0.00;0.00;0.00
23240;PMS7003;11789;53.482;9.862;2023-02-01T05:58:13;0.00;0.00;0.00
23240;PMS7003;11789;53.482;9.862;2023-02-01T06:00:38;0.00;0.00;0.00
23240;PMS7003;11789;53.482;9.862;2023-02-01T06:03:04;0.00;0.00;0.00
23240;PMS7003;11789;53.482;9.862;2023-02-01T06:05:29;0.00;0.00;0.00
23240;PMS7003;11789;53.482;9.862;2023-02-01T06:07:55;2.00;0.00;0.00
23240;PMS7003;11789;53.482;9.862;2023-02-01T06:10:20;2.00;0.00;0.00
23240;PMS7003;11789;53.482;9.862;2023-02-01T06:12:46;0.00;0.00;0.00
23240;PMS7003;11789;53.482;9.862;2023-02-01T06:15:12;2.00;0.00;0.00
23240;PMS7003;11789;53.482;9.862;2023-02-01T06:17:40;0.50;0.50;0.25
23240;PMS7003;11789;53.482;9.862;2023-02-01T06:20:08;0.00;0.00;0.00
23240;PMS7003;11789;53.482;9.862;2023-02-01T06:22:34;1.00;0.00;0.00
23240;PMS7003;11789;53.482;9.862;2023-02-01T06:25:01;1.00;0.75;0.00
23240;PMS7003;11789;53.482;9.862;2023-02-01T06:27:31;2.75;1.00;1.00
23240;PMS7003;11789;53.482;9.862;2023-02-01T06:29:56;0.75;0.75;0.50
23240;PMS7003;11789;53.482;9.862;2023-02-01T06:32:22;1.00;1.00;0.00
23240;PMS7003;11789;53.482;9.862;2023-02-01T06:34:48;1.75;1.00;0.00
23240;PMS7003;11789;53.482;9.862;2023-02-01T06:37:14;3.00;1.00;0.50
23240;PMS7003;11789;53.482;9.862;2023-02-01T06:39:39;2.00;1.00;0.50
23240;PMS7003;11789;53.482;9.862;2023-02-01T06:42:05;3.25;1.00;1.00
23240;PMS7003;11789;53.482;9.862;2023-02-01T06:44:30;7.75;1.00;0.00
23240;PMS7003;11789;53.482;9.862;2023-02-01T06:46:55;4.75;1.00;0.00
23240;PMS7003;11789;53.482;9.862;2023-02-01T06:49:21;0.25;0.25;0.00
23240;PMS7003;11789;53.482;9.862;2023-02-01T06:51:47;1.75;1.75;1.00
23240;PMS7003;11789;53.482;9.862;2023-02-01T06:54:12;1.75;1.75;0.25
23240;PMS7003;11789;53.482;9.862;2023-02-01T06:56:38;5.00;2.00;1.00
23240;PMS7003;11789;53.482;9.862;2023-02-01T06:59:04;2.00;1.00;0.00
23240;PMS7003;11789;53.482;9.862;2023-02-01T07:01:30;3.00;1.50;1.00
23240;PMS7003;11789;53.482;9.862;2023-02-01T07:03:56;1.75;1.00;1.00
23240;PMS7003;11789;53.482;9.862;2023-02-01T07:06:21;6.50;1.00;0.50
23240;PMS7003;11789;53.482;9.862;2023-02-01T07:08:47;3.00;1.00;0.75
23240;PMS7003;11789;53.482;9.862;2023-02-01T07:11:13;1.25;1.25;1.00
23240;PMS7003;11789;53.482;9.862;2023-02-01T07:13:40;1.50;1.50;1.00
23240;PMS7003;11789;53.482;9.862;2023-02-01T07:16:06;2.00;2.00;1.00
23240;PMS7003;11789;53.482;9.862;2023-02-01T07:18:35;6.75;2.00;1.00
23240;PMS7003;11789;53.482;9.862;2023-02-01T07:21:00;5.25;2.00;1.00
23240;PMS7003;11789;53.482;9.862;2023-02-01T07:23:26;1.50;1.50;1.00
23240;PMS7003;11789;53.482;9.862;2023-02-01T07:25:56;4.50;2.50;1.50
23240;PMS7003;11789;53.482;9.862;2023-02-01T07:28:24;7.50;3.00;1.00
23240;PMS7003;11789;53.482;9.862;2023-02-01T07:30:50;7.25;3.25;2.00
23240;PMS7003;11789;53.482;9.862;2023-02-01T07:33:20;9.25;4.75;2.00
23240;PMS7003;11789;53.482;9.862;2023-02-01T07:35:47;7.00;3.00;2.75
23240;PMS7003;11789;53.482;9.862;2023-02-01T07:38:13;7.25;6.00;2.25
23240;PMS7003;11789;53.482;9.862;2023-02-01T07:40:39;7.00;4.00;2.50
23240;PMS7003;11789;53.482;9.862;2023-02-01T07:43:05;14.75;4.00;1.75
23240;PMS7003;11789;53.482;9.862;2023-02-01T07:45:32;8.50;6.00;2.00
23240;PMS7003;11789;53.482;9.862;2023-02-01T07:47:58;9.00;5.75;2.00
23240;PMS7003;11789;53.482;9.862;2023-02-01T07:50:24;8.50;3.00;2.00
23240;PMS7003;11789;53.482;9.862;2023-02-01T07:52:49;14.50;6.00;2.00
23240;PMS7003;11789;53.482;9.862;2023-02-01T07:55:15;10.00;3.00;1.75
23240;PMS7003;11789;53.482;9.862;2023-02-01T07:57:40;6.25;3.50;1.75
23240;PMS7003;11789;53.482;9.862;2023-02-01T08:00:06;2.00;2.00;1.00
23240;PMS7003;11789;53.482;9.862;2023-02-01T08:02:51;7.50;4.00;2.00
23240;PMS7003;11789;53.482;9.862;2023-02-01T08:05:17;3.00;3.00;2.00
23240;PMS7003;11789;53.482;9.862;2023-02-01T08:07:42;7.00;4.00;1.75
23240;PMS7003;11789;53.482;9.862;2023-02-01T08:10:08;9.50;3.50;2.00
23240;PMS7003;11789;53.482;9.862;2023-02-01T08:12:36;4.00;4.00;1.25
23240;PMS7003;11789;53.482;9.862;2023-02-01T08:15:03;4.50;4.50;2.00
23240;PMS7003;11789;53.482;9.862;2023-02-01T08:17:29;10.75;3.00;2.00
23240;PMS7003;11789;53.482;9.862;2023-02-01T08:19:55;7.75;3.00;2.00
23240;PMS7003;11789;53.482;9.862;2023-02-01T08:22:20;7.25;5.00;2.00
23240;PMS7003;11789;53.482;9.862;2023-02-01T08:24:49;7.50;4.00;2.00
23240;PMS7003;11789;53.482;9.862;2023-02-01T08:27:15;3.00;3.00;1.00
23240;PMS7003;11789;53.482;9.862;2023-02-01T08:29:40;8.75;4.00;2.00
23240;PMS7003;11789;53.482;9.862;2023-02-01T08:32:06;6.00;4.00;2.00
23240;PMS7003;11789;53.482;9.862;2023-02-01T08:34:31;7.25;4.00;2.50
23240;PMS7003;11789;53.482;9.862;2023-02-01T08:36:57;7.00;4.75;2.50
23240;PMS7003;11789;53.482;9.862;2023-02-01T08:39:23;7.75;3.00;1.50
23240;PMS7003;11789;53.482;9.862;2023-02-01T08:41:49;10.00;6.00;1.00
23240;PMS7003;11789;53.482;9.862;2023-02-01T08:44:35;8.25;2.00;1.00
23240;PMS7003;11789;53.482;9.862;2023-02-01T08:47:01;3.00;3.00;1.25
23240;PMS7003;11789;53.482;9.862;2023-02-01T08:49:27;7.25;2.25;1.00
23240;PMS7003;11789;53.482;9.862;2023-02-01T08:51:53;4.50;2.50;1.25
23240;PMS7003;11789;53.482;9.862;2023-02-01T08:54:18;11.00;5.00;3.50
23240;PMS7003;11789;53.482;9.862;2023-02-01T08:56:44;9.00;7.25;2.25
23240;PMS7003;11789;53.482;9.862;2023-02-01T08:59:09;8.00;3.00;1.00
23240;PMS7003;11789;53.482;9.862;2023-02-01T09:01:34;6.25;3.25;1.00
23240;PMS7003;11789;53.482;9.862;2023-02-01T09:04:00;7.00;5.00;2.00
23240;PMS7003;11789;53.482;9.862;2023-02-01T09:06:25;8.75;3.75;2.00
23240;PMS7003;11789;53.482;9.862;2023-02-01T09:08:51;6.25;5.00;2.00
23240;PMS7003;11789;53.482;9.862;2023-02-01T09:11:17;10.00;3.75;2.00
23240;PMS7003;11789;53.482;9.862;2023-02-01T09:13:44;9.50;4.50;2.00
23240;PMS7003;11789;53.482;9.862;2023-02-01T09:16:10;10.25;5.00;3.00
23240;PMS7003;11789;53.482;9.862;2023-02-01T09:18:35;11.00;4.25;1.50
23240;PMS7003;11789;53.482;9.862;2023-02-01T09:21:05;10.25;2.50;1.25
23240;PMS7003;11789;53.482;9.862;2023-02-01T09:23:31;8.00;2.75;1.25
23240;PMS7003;11789;53.482;9.862;2023-02-01T09:26:01;2.00;2.00;1.00
23240;PMS7003;11789;53.482;9.862;2023-02-01T09:28:28;10.00;3.75;2.00
23240;PMS7003;11789;53.482;9.862;2023-02-01T09:30:57;8.50;4.00;2.00
23240;PMS7003;11789;53.482;9.862;2023-02-01T09:33:24;5.50;3.00;1.00
23240;PMS7003;11789;53.482;9.862;2023-02-01T09:35:58;11.25;3.00;1.75
23240;PMS7003;11789;53.482;9.862;2023-02-01T09:38:26;8.00;4.00;1.00
23240;PMS7003;11789;53.482;9.862;2023-02-01T09:40:52;5.75;4.25;2.00
23240;PMS7003;11789;53.482;9.862;2023-02-01T09:46:06;9.50;3.50;1.75
23240;PMS7003;11789;53.482;9.862;2023-02-01T09:48:47;5.75;3.50;1.50
23240;PMS7003;11789;53.482;9.862;2023-02-01T09:51:18;7.75;4.00;1.75
23240;PMS7003;11789;53.482;9.862;2023-02-01T09:53:53;3.00;3.00;1.00
23240;PMS7003;11789;53.482;9.862;2023-02-01T09:56:23;7.75;2.00;1.25
23240;PMS7003;11789;53.482;9.862;2023-02-01T09:58:56;3.75;2.00;1.00
23240;PMS7003;11789;53.482;9.862;2023-02-01T10:01:29;4.25;3.75;2.00
23240;PMS7003;11789;53.482;9.862;2023-02-01T10:04:01;4.00;2.50;0.00
23240;PMS7003;11789;53.482;9.862;2023-02-01T10:06:33;3.00;3.00;1.00
23240;PMS7003;11789;53.482;9.862;2023-02-01T10:09:19;4.75;2.50;2.00
23240;PMS7003;11789;53.482;9.862;2023-02-01T10:23:27;6.25;4.00;2.00
23240;PMS7003;11789;53.482;9.862;2023-02-01T10:28:46;4.75;3.00;1.75
23240;PMS7003;11789;53.482;9.862;2023-02-01T10:31:14;6.25;2.00;1.25
23240;PMS7003;11789;53.482;9.862;2023-02-01T10:33:43;8.00;3.00;2.00
23240;PMS7003;11789;53.482;9.862;2023-02-01T10:36:13;3.00;2.00;1.00
23240;PMS7003;11789;53.482;9.862;2023-02-01T10:38:44;3.00;2.00;1.50
23240;PMS7003;11789;53.482;9.862;2023-02-01T10:41:15;4.00;2.00;1.00
23240;PMS7003;11789;53.482;9.862;2023-02-01T10:43:43;8.75;3.00;1.00
23240;PMS7003;11789;53.482;9.862;2023-02-01T10:46:13;2.75;2.50;1.00
23240;PMS7003;11789;53.482;9.862;2023-02-01T10:48:38;7.75;3.75;1.50
23240;PMS7003;11789;53.482;9.862;2023-02-01T10:51:07;8.00;2.25;1.50
23240;PMS7003;11789;53.482;9.862;2023-02-01T10:53:46;4.75;2.00;1.25
23240;PMS7003;11789;53.482;9.862;2023-02-01T10:56:21;6.75;3.25;1.25
23240;PMS7003;11789;53.482;9.862;2023-02-01T10:58:51;9.75;4.00;2.00
23240;PMS7003;11789;53.482;9.862;2023-02-01T11:01:37;10.50;4.50;2.00
23240;PMS7003;11789;53.482;9.862;2023-02-01T11:04:07;7.00;2.00;1.00
23240;PMS7003;11789;53.482;9.862;2023-02-01T11:06:39;4.00;2.00;1.00
23240;PMS7003;11789;53.482;9.862;2023-02-01T11:14:16;7.75;2.50;1.00
23240;PMS7003;11789;53.482;9.862;2023-02-01T11:16:48;10.25;3.75;2.00
23240;PMS7003;11789;53.482;9.862;2023-02-01T11:19:16;3.00;3.00;1.50
23240;PMS7003;11789;53.482;9.862;2023-02-01T11:21:42;5.50;3.25;2.00
23240;PMS7003;11789;53.482;9.862;2023-02-01T11:24:33;4.00;4.00;2.25
23240;PMS7003;11789;53.482;9.862;2023-02-01T11:27:01;5.00;3.00;1.00
23240;PMS7003;11789;53.482;9.862;2023-02-01T11:29:47;3.75;3.00;1.00
23240;PMS7003;11789;53.482;9.862;2023-02-01T11:32:16;8.75;3.00;2.00
23240;PMS7003;11789;53.482;9.862;2023-02-01T11:34:49;8.00;3.00;2.00
23240;PMS7003;11789;53.482;9.862;2023-02-01T11:37:20;4.25;4.00;2.00
23240;PMS7003;11789;53.482;9.862;2023-02-01T11:39:56;9.25;3.25;1.75
23240;PMS7003;11789;53.482;9.862;2023-02-01T11:42:55;9.25;4.50;2.25
23240;PMS7003;11789;53.482;9.862;2023-02-01T11:45:33;9.50;3.00;2.25
23240;PMS7003;11789;53.482;9.862;2023-02-01T11:48:00;5.00;3.50;2.00
23240;PMS7003;11789;53.482;9.862;2023-02-01T11:55:50;1.00;1.00;0.75
23240;PMS7003;11789;53.482;9.862;2023-02-01T11:58:28;1.25;0.75;0.00
23240;PMS7003;11789;53.482;9.862;2023-02-01T12:01:17;5.25;1.25;1.00
23240;PMS7003;11789;53.482;9.862;2023-02-01T12:03:51;4.25;1.50;1.00
23240;PMS7003;11789;53.482;9.862;2023-02-01T12:06:30;7.00;1.25;1.00
23240;PMS7003;11789;53.482;9.862;2023-02-01T12:23:10;3.25;1.00;1.00
23240;PMS7003;11789;53.482;9.862;2023-02-01T12:39:20;0.00;0.00;0.00
23240;PMS7003;11789;53.482;9.862;2023-02-01T12:41:51;0.00;0.00;0.00
23240;PMS7003;11789;53.482;9.862;2023-02-01T12:48:17;0.00;0.00;0.00
23240;PMS7003;11789;53.482;9.862;2023-02-01T12:53:19;0.00;0.00;0.00
23240;PMS7003;11789;53.482;9.862;2023-02-01T12:55:57;0.00;0.00;0.00
23240;PMS7003;11789;53.482;9.862;2023-02-01T12:58:35;1.00;0.00;0.00
23240;PMS7003;11789;53.482;9.862;2023-02-01T13:01:30;1.00;0.00;0.00
23240;PMS7003;11789;53.482;9.862;2023-02-01T13:04:03;0.00;0.00;0.00
23240;PMS7003;11789;53.482;9.862;2023-02-01T13:06:41;0.00;0.00;0.00
23240;PMS7003;11789;53.482;9.862;2023-02-01T13:09:59;0.00;0.00;0.00
23240;PMS7003;11789;53.482;9.862;2023-02-01T13:11:59;0.25;0.00;0.00
23240;PMS7003;11789;53.482;9.862;2023-02-01T13:14:38;0.00;0.00;0.00
23240;PMS7003;11789;53.482;9.862;2023-02-01T13:22:33;0.00;0.00;0.00
23240;PMS7003;11789;53.482;9.862;2023-02-01T13:25:04;0.00;0.00;0.00
23240;PMS7003;11789;53.482;9.862;2023-02-01T13:27:38;0.00;0.00;0.00
23240;PMS7003;11789;53.482;9.862;2023-02-01T13:30:15;0.00;0.00;0.00
23240;PMS7003;11789;53.482;9.862;2023-02-01T13:38:09;0.00;0.00;0.00
23240;PMS7003;11789;53.482;9.862;2023-02-01T13:43:43;0.00;0.00;0.00
23240;PMS7003;11789;53.482;9.862;2023-02-01T13:46:13;4.00;1.00;0.50
23240;PMS7003;11789;53.482;9.862;2023-02-01T13:48:49;0.00;0.00;0.00
23240;PMS7003;11789;53.482;9.862;2023-02-01T13:51:29;0.00;0.00;0.00
23240;PMS7003;11789;53.482;9.862;2023-02-01T13:53:56;1.75;1.75;1.00
23240;PMS7003;11789;53.482;9.862;2023-02-01T13:56:22;2.00;0.00;0.00
23240;PMS7003;11789;53.482;9.862;2023-02-01T13:58:50;0.00;0.00;0.00
23240;PMS7003;11789;53.482;9.862;2023-02-01T14:03:51;1.00;1.00;0.50
23240;PMS7003;11789;53.482;9.862;2023-02-01T14:11:39;0.00;0.00;0.00
23240;PMS7003;11789;53.482;9.862;2023-02-01T14:21:50;0.75;0.75;0.00
23240;PMS7003;11789;53.482;9.862;2023-02-01T14:24:24;1.75;0.75;0.25
23240;PMS7003;11789;53.482;9.862;2023-02-01T14:26:52;0.00;0.00;0.00
23240;PMS7003;11789;53.482;9.862;2023-02-01T14:31:59;2.00;0.00;0.00
23240;PMS7003;11789;53.482;9.862;2023-02-01T14:34:49;0.00;0.00;0.00
23240;PMS7003;11789;53.482;9.862;2023-02-01T14:42:24;1.00;1.00;0.00
23240;PMS7003;11789;53.482;9.862;2023-02-01T14:44:54;0.50;0.00;0.00
23240;PMS7003;11789;53.482;9.862;2023-02-01T14:49:53;1.00;1.00;0.00
23240;PMS7003;11789;53.482;9.862;2023-02-01T14:52:22;0.75;0.75;0.00
23240;PMS7003;11789;53.482;9.862;2023-02-01T14:55:06;1.50;0.00;0.00
23240;PMS7003;11789;53.482;9.862;2023-02-01T14:57:56;1.25;0.00;0.00
23240;PMS7003;11789;53.482;9.862;2023-02-01T15:00:26;0.00;0.00;0.00
23240;PMS7003;11789;53.482;9.862;2023-02-01T15:02:55;0.00;0.00;0.00
23240;PMS7003;11789;53.482;9.862;2023-02-01T15:05:41;2.25;1.00;1.00
23240;PMS7003;11789;53.482;9.862;2023-02-01T15:08:29;5.50;1.50;0.75
23240;PMS7003;11789;53.482;9.862;2023-02-01T15:10:58;4.00;3.00;2.00
23240;PMS7003;11789;53.482;9.862;2023-02-01T15:13:28;3.25;1.25;1.00
23240;PMS7003;11789;53.482;9.862;2023-02-01T15:16:10;6.50;6.00;2.50
23240;PMS7003;11789;53.482;9.862;2023-02-01T15:18:38;8.25;6.50;3.00
23240;PMS7003;11789;53.482;9.862;2023-02-01T15:21:05;6.25;3.25;2.50
23240;PMS7003;11789;53.482;9.862;2023-02-01T15:23:38;4.00;1.00;0.75
23240;PMS7003;11789;53.482;9.862;2023-02-01T15:26:03;3.00;1.00;1.00
23240;PMS7003;11789;53.482;9.862;2023-02-01T15:28:29;5.00;1.00;0.75
23240;PMS7003;11789;53.482;9.862;2023-02-01T15:30:58;2.50;0.00;0.00
23240;PMS7003;11789;53.482;9.862;2023-02-01T15:33:26;1.25;1.25;1.00
23240;PMS7003;11789;53.482;9.862;2023-02-01T15:38:32;2.25;1.25;0.75
23240;PMS7003;11789;53.482;9.862;2023-02-01T15:49:00;2.00;2.00;1.00
23240;PMS7003;11789;53.482;9.862;2023-02-01T15:51:27;7.25;5.50;2.00
23240;PMS7003;11789;53.482;9.862;2023-02-01T15:53:56;9.25;6.00;3.00
23240;PMS7003;11789;53.482;9.862;2023-02-01T15:56:40;6.00;4.00;1.75
23240;PMS7003;11789;53.482;9.862;2023-02-01T15:59:13;8.50;8.00;4.00
23240;PMS7003;11789;53.482;9.862;2023-02-01T16:01:42;6.75;3.00;2.00
23240;PMS7003;11789;53.482;9.862;2023-02-01T16:04:21;4.00;4.00;2.00
23240;PMS7003;11789;53.482;9.862;2023-02-01T16:07:01;4.25;1.75;1.00
23240;PMS7003;11789;53.482;9.862;2023-02-01T16:12:24;31.00;25.00;16.67
23240;PMS7003;11789;53.482;9.862;2023-02-01T16:14:52;15.25;13.75;8.75
23240;PMS7003;11789;53.482;9.862;2023-02-01T16:17:17;22.67;18.33;13.00
23240;PMS7003;11789;53.482;9.862;2023-02-01T16:19:42;7.75;6.75;4.75
23240;PMS7003;11789;53.482;9.862;2023-02-01T16:22:08;3.25;3.00;1.00
23240;PMS7003;11789;53.482;9.862;2023-02-01T16:24:33;7.25;3.00;1.50
23240;PMS7003;11789;53.482;9.862;2023-02-01T16:26:59;5.75;4.75;2.00
23240;PMS7003;11789;53.482;9.862;2023-02-01T16:29:24;7.75;6.25;3.00
23240;PMS7003;11789;53.482;9.862;2023-02-01T16:31:50;8.75;6.75;2.75
23240;PMS7003;11789;53.482;9.862;2023-02-01T16:34:16;8.25;4.00;2.75
23240;PMS7003;11789;53.482;9.862;2023-02-01T16:36:43;10.00;3.75;3.00
23240;PMS7003;11789;53.482;9.862;2023-02-01T16:39:17;11.75;6.00;2.00
23240;PMS7003;11789;53.482;9.862;2023-02-01T16:41:44;8.75;4.00;1.50
23240;PMS7003;11789;53.482;9.862;2023-02-01T16:44:10;6.25;1.75;1.00
23240;PMS7003;11789;53.482;9.862;2023-02-01T16:46:38;8.25;3.25;2.00
23240;PMS7003;11789;53.482;9.862;2023-02-01T16:49:07;9.00;6.00;2.00
23240;PMS7003;11789;53.482;9.862;2023-02-01T16:51:43;7.50;4.00;2.75
23240;PMS7003;11789;53.482;9.862;2023-02-01T16:54:09;9.75;4.75;2.00
23240;PMS7003;11789;53.482;9.862;2023-02-01T16:56:35;10.50;4.00;1.00
23240;PMS7003;11789;53.482;9.862;2023-02-01T16:59:02;5.75;2.50;1.25
23240;PMS7003;11789;53.482;9.862;2023-02-01T17:01:27;10.75;4.00;2.00
23240;PMS7003;11789;53.482;9.862;2023-02-01T17:03:53;11.25;3.00;1.50
23240;PMS7003;11789;53.482;9.862;2023-02-01T17:06:19;12.50;8.25;4.00